createdAt,value
2023-11-14T00:00:00.517Z,43.3
2023-11-14T00:01:14.815Z,42
2023-11-14T00:02:28.124Z,53.3
2023-11-14T00:03:42.417Z,38.6
2023-11-14T00:04:56.709Z,43.3
2023-11-14T00:06:11.002Z,42.3
2023-11-14T00:07:25.295Z,36.2
2023-11-14T00:08:39.587Z,38.3
2023-11-14T00:09:53.880Z,43.6
2023-11-14T00:11:08.172Z,43.3
2023-11-14T00:12:22.465Z,38.1
2023-11-14T00:13:36.758Z,34.3
2023-11-14T00:14:51.042Z,49.9
2023-11-14T00:16:05.343Z,35.1
2023-11-14T00:17:19.636Z,35.1
2023-11-14T00:18:32.945Z,35.1
2023-11-14T00:19:47.237Z,34.1
2023-11-14T00:21:01.530Z,34.3
2023-11-14T00:22:15.810Z,38.5
2023-11-14T00:23:30.115Z,34.6
2023-11-14T00:24:44.408Z,35.1
2023-11-14T00:25:58.700Z,34.4
2023-11-14T00:27:12.993Z,37
2023-11-14T00:28:27.286Z,34.9
2023-11-14T00:29:41.579Z,39.4
2023-11-14T00:30:55.871Z,39.4
2023-11-14T00:32:10.164Z,39.1
2023-11-14T00:33:24.457Z,33.5
2023-11-14T00:34:37.765Z,38.9
2023-11-14T00:35:52.058Z,33.8
2023-11-14T00:37:06.332Z,41.8
2023-11-14T00:38:20.644Z,35.7
2023-11-14T00:39:34.936Z,33.8
2023-11-14T00:40:49.229Z,35.4
2023-11-14T00:42:03.522Z,33.9
2023-11-14T00:43:17.814Z,35.4
2023-11-14T00:45:46.399Z,44.4
2023-11-14T00:47:00.692Z,34.6
2023-11-14T00:48:14.985Z,33.9
2023-11-14T00:49:29.278Z,34.6
2023-11-14T00:50:42.587Z,34.9
2023-11-14T00:51:56.867Z,34.4
2023-11-14T00:53:11.172Z,34.3
2023-11-14T00:54:25.464Z,36
2023-11-14T00:55:39.757Z,35.4
2023-11-14T00:56:54.050Z,35.2
2023-11-14T00:58:08.342Z,38.5
2023-11-14T00:59:22.635Z,38
2023-11-14T01:00:36.928Z,35.2
2023-11-14T01:01:51.221Z,36.2
2023-11-14T01:03:05.513Z,34.8
2023-11-14T01:04:19.806Z,36
2023-11-14T01:05:34.098Z,36.7
2023-11-14T01:06:47.393Z,36.4
2023-11-14T01:08:01.700Z,36.7
2023-11-14T01:09:15.992Z,34.1
2023-11-14T01:10:30.285Z,34.9
2023-11-14T01:11:44.578Z,35.2
2023-11-14T01:12:58.871Z,57.5
2023-11-14T01:14:13.163Z,38.3
2023-11-14T01:15:27.456Z,37.7
2023-11-14T01:16:41.749Z,36
2023-11-14T01:17:56.041Z,36.2
2023-11-14T01:19:10.334Z,34.4
2023-11-14T01:20:24.627Z,34.9
2023-11-14T01:21:38.919Z,34.1
2023-11-14T01:22:53.334Z,38.9
2023-11-14T01:24:07.626Z,40.4
2023-11-14T01:25:21.919Z,41.8
2023-11-14T01:26:36.211Z,40.7
2023-11-14T01:27:50.504Z,36
2023-11-14T01:29:04.797Z,34.6
2023-11-14T01:30:19.089Z,37.7
2023-11-14T01:31:33.382Z,36.5
2023-11-14T01:32:47.675Z,36.2
2023-11-14T01:34:01.967Z,35.6
2023-11-14T01:35:16.239Z,38
2023-11-14T01:36:30.553Z,36.4
2023-11-14T01:37:44.845Z,35.2
2023-11-14T01:38:58.154Z,35.4
2023-11-14T01:40:12.447Z,36
2023-11-14T01:41:26.729Z,39.6
2023-11-14T01:42:41.032Z,39.4
2023-11-14T01:43:55.325Z,36.7
2023-11-14T01:45:09.617Z,42.2
2023-11-14T01:46:23.910Z,44.9
2023-11-14T01:47:38.203Z,34.4
2023-11-14T01:48:52.495Z,38.8
2023-11-14T01:50:06.788Z,37.3
2023-11-14T01:51:21.080Z,37.2
2023-11-14T01:52:35.373Z,41.7
2023-11-14T01:53:49.666Z,38.8
2023-11-14T01:55:02.975Z,39.9
2023-11-14T01:56:17.267Z,35.1
2023-11-14T01:57:31.560Z,38.8
2023-11-14T01:58:45.852Z,36.2
2023-11-14T02:00:00.145Z,35.9
2023-11-14T02:01:14.437Z,36.5
2023-11-14T02:02:28.730Z,37.2
2023-11-14T02:03:43.023Z,36.7
2023-11-14T02:04:57.315Z,35.7
2023-11-14T02:06:11.608Z,39.4
2023-11-14T02:07:25.900Z,38.1
2023-11-14T02:08:40.193Z,37.2
2023-11-14T02:09:54.486Z,40.9
2023-11-14T02:11:07.794Z,48
2023-11-14T02:12:22.087Z,45.4
2023-11-14T02:13:36.379Z,34.6
2023-11-14T02:14:50.672Z,41.2
2023-11-14T02:16:04.965Z,37.3
2023-11-14T02:17:19.257Z,37.8
2023-11-14T02:18:33.550Z,38.5
2023-11-14T02:19:47.843Z,40.4
2023-11-14T02:21:02.135Z,39.9
2023-11-14T02:22:16.428Z,40.6
2023-11-14T02:23:30.720Z,43.9
2023-11-14T02:24:45.013Z,41
2023-11-14T02:25:59.306Z,40.1
2023-11-14T02:27:12.614Z,36.4
2023-11-14T02:28:26.907Z,37.5
2023-11-14T02:29:41.200Z,37.8
2023-11-14T02:30:55.492Z,38.5
2023-11-14T02:32:09.785Z,37.3
2023-11-14T02:33:24.077Z,36.5
2023-11-14T02:34:37.391Z,39.3
2023-11-14T02:35:51.684Z,36
2023-11-14T02:37:05.976Z,34.9
2023-11-14T02:38:20.269Z,36.4
2023-11-14T02:39:34.562Z,39.3
2023-11-14T02:40:48.854Z,39.1
2023-11-14T02:42:03.147Z,35.9
2023-11-14T02:43:17.439Z,39.1
2023-11-14T02:44:31.732Z,48.5
2023-11-14T02:45:46.024Z,42
2023-11-14T02:47:00.317Z,46.8
2023-11-14T02:48:14.610Z,38.8
2023-11-14T02:49:28.902Z,40.4
2023-11-14T02:50:42.211Z,38.9
2023-11-14T02:51:56.504Z,45.7
2023-11-14T02:53:10.796Z,40.9
2023-11-14T02:54:25.089Z,45.2
2023-11-14T02:55:39.381Z,43.5
2023-11-14T02:56:53.674Z,36
2023-11-14T02:58:07.967Z,36
2023-11-14T02:59:22.259Z,35.9
2023-11-14T03:00:36.552Z,38.8
2023-11-14T03:01:50.844Z,37.8
2023-11-14T03:03:05.137Z,35.9
2023-11-14T03:04:19.430Z,41.4
2023-11-14T03:05:33.722Z,38.9
2023-11-14T03:06:47.031Z,37.5
2023-11-14T03:08:01.323Z,40.6
2023-11-14T03:09:15.616Z,36.8
2023-11-14T03:10:29.909Z,38
2023-11-14T03:11:44.201Z,39.1
2023-11-14T03:12:58.494Z,38.3
2023-11-14T03:14:12.786Z,43
2023-11-14T03:15:27.079Z,40.7
2023-11-14T03:16:41.372Z,43.3
2023-11-14T03:17:55.664Z,37.2
2023-11-14T03:19:09.957Z,36.4
2023-11-14T03:20:24.250Z,41.4
2023-11-14T03:21:38.542Z,41.4
2023-11-14T03:22:51.851Z,39.7
2023-11-14T03:24:06.144Z,39.9
2023-11-14T03:25:20.436Z,38.5
2023-11-14T03:26:34.729Z,40.9
2023-11-14T03:27:49.021Z,37.8
2023-11-14T03:29:03.314Z,37.2
2023-11-14T03:30:17.607Z,38.9
2023-11-14T03:31:31.899Z,41.8
2023-11-14T03:32:46.192Z,42
2023-11-14T03:34:00.484Z,40.7
2023-11-14T03:35:14.777Z,40.2
2023-11-14T03:36:29.069Z,42.7
2023-11-14T03:37:43.362Z,38.9
2023-11-14T03:38:56.671Z,41.7
2023-11-14T03:40:10.963Z,40.1
2023-11-14T03:41:25.256Z,40.7
2023-11-14T03:42:39.549Z,38.9
2023-11-14T03:43:53.841Z,43.3
2023-11-14T03:45:08.134Z,38.6
2023-11-14T03:46:22.427Z,40.2
2023-11-14T03:47:36.719Z,43.1
2023-11-14T03:48:51.012Z,48.6
2023-11-14T03:50:05.304Z,45.6
2023-11-14T03:51:19.597Z,42.2
2023-11-14T03:52:33.890Z,43.8
2023-11-14T03:53:48.182Z,43.3
2023-11-14T03:55:01.491Z,42.2
2023-11-14T03:56:15.784Z,38.1
2023-11-14T03:57:30.076Z,39.9
2023-11-14T03:58:44.369Z,41.2
2023-11-14T03:59:58.662Z,41.2
2023-11-14T04:01:12.954Z,39.6
2023-11-14T04:02:27.247Z,40.6
2023-11-14T04:03:41.540Z,40.2
2023-11-14T04:04:55.832Z,40.2
2023-11-14T04:06:10.125Z,37.8
2023-11-14T04:07:24.418Z,39.1
2023-11-14T04:08:38.710Z,41
2023-11-14T04:09:53.003Z,41.5
2023-11-14T04:11:06.312Z,40.7
2023-11-14T04:12:20.604Z,38.6
2023-11-14T04:13:34.897Z,39.6
2023-11-14T04:14:49.190Z,39.3
2023-11-14T04:16:03.482Z,39.4
2023-11-14T04:17:17.775Z,39.9
2023-11-14T04:18:32.068Z,42.8
2023-11-14T04:19:46.360Z,41
2023-11-14T04:21:00.653Z,41.8
2023-11-14T04:22:14.946Z,44.1
2023-11-14T04:23:29.239Z,42.2
2023-11-14T04:24:43.531Z,39.4
2023-11-14T04:25:57.824Z,40.4
2023-11-14T04:27:11.133Z,43.9
2023-11-14T04:28:25.425Z,39.9
2023-11-14T04:29:39.718Z,41.4
2023-11-14T04:30:54.010Z,42.8
2023-11-14T04:32:08.303Z,46.2
2023-11-14T04:33:22.596Z,42.3
2023-11-14T04:34:36.889Z,41.5
2023-11-14T04:35:51.181Z,45.4
2023-11-14T04:37:05.474Z,41.5
2023-11-14T04:38:19.766Z,40.9
2023-11-14T04:39:34.059Z,52.5
2023-11-14T04:40:48.353Z,43.9
2023-11-14T04:42:02.645Z,46.4
2023-11-14T04:43:15.948Z,41.4
2023-11-14T04:44:30.247Z,43.3
2023-11-14T04:45:44.540Z,39.9
2023-11-14T04:46:58.832Z,39.7
2023-11-14T04:48:13.125Z,40.9
2023-11-14T04:49:27.418Z,43
2023-11-14T04:50:41.710Z,42.3
2023-11-14T04:51:56.003Z,39.7
2023-11-14T04:53:10.295Z,42.3
2023-11-14T04:54:24.588Z,40.4
2023-11-14T04:55:38.881Z,42.3
2023-11-14T04:56:53.173Z,40.9
2023-11-14T04:58:07.466Z,43.1
2023-11-14T04:59:20.775Z,42.3
2023-11-14T05:00:35.067Z,42
2023-11-14T05:01:49.360Z,42.3
2023-11-14T05:03:03.653Z,41.5
2023-11-14T05:04:17.945Z,41.7
2023-11-14T05:05:32.238Z,42.7
2023-11-14T05:06:46.531Z,44.9
2023-11-14T05:08:00.824Z,44.6
2023-11-14T05:09:15.116Z,42
2023-11-14T05:10:29.409Z,41.4
2023-11-14T05:11:43.702Z,43.5
2023-11-14T05:12:57.994Z,46
2023-11-14T05:14:12.287Z,45.9
2023-11-14T05:15:25.596Z,42.8
2023-11-14T05:16:39.889Z,44.1
2023-11-14T05:17:54.182Z,44.1
2023-11-14T05:19:08.474Z,41.7
2023-11-14T05:20:22.767Z,45.4
2023-11-14T05:21:37.060Z,44.9
2023-11-14T05:22:51.352Z,44.6
2023-11-14T05:24:05.645Z,43.6
2023-11-14T05:25:19.938Z,41.7
2023-11-14T05:26:34.218Z,45.2
2023-11-14T05:27:48.523Z,40.9
2023-11-14T05:29:02.816Z,49.6
2023-11-14T05:30:17.109Z,44.3
2023-11-14T05:31:30.417Z,42.5
2023-11-14T05:32:44.710Z,44.3
2023-11-14T05:33:59.003Z,44.1
2023-11-14T05:35:13.295Z,43.3
2023-11-14T05:36:27.588Z,45.1
2023-11-14T05:37:41.881Z,43.5
2023-11-14T05:38:56.174Z,44.1
2023-11-14T05:40:10.466Z,53.4
2023-11-14T05:41:24.749Z,44.6
2023-11-14T05:42:39.052Z,48
2023-11-14T05:43:53.344Z,46.7
2023-11-14T05:45:07.637Z,45.1
2023-11-14T05:46:21.930Z,44.3
2023-11-14T05:47:35.239Z,43.9
2023-11-14T05:48:49.531Z,45.9
2023-11-14T05:50:03.824Z,43.9
2023-11-14T05:51:18.117Z,43.8
2023-11-14T05:52:32.410Z,46.2
2023-11-14T05:53:46.703Z,44.7
2023-11-14T05:55:00.941Z,43.8
2023-11-14T05:56:15.234Z,44.4
2023-11-14T05:57:29.484Z,43
2023-11-14T05:58:43.777Z,45.2
2023-11-14T05:59:58.027Z,45.1
2023-11-14T06:01:12.266Z,47
2023-11-14T06:02:26.505Z,42.3
2023-11-14T06:03:39.759Z,44.1
2023-11-14T06:04:53.998Z,45.7
2023-11-14T06:06:08.237Z,47.8
2023-11-14T06:07:22.475Z,43
2023-11-14T06:08:36.714Z,47.2
2023-11-14T06:09:50.953Z,45.2
2023-11-14T06:11:05.192Z,47.3
2023-11-14T06:12:19.431Z,53.6
2023-11-14T06:13:33.669Z,44.9
2023-11-14T06:14:47.908Z,44.7
2023-11-14T06:16:02.147Z,48
2023-11-14T06:17:16.385Z,45.6
2023-11-14T06:18:30.624Z,48
2023-11-14T06:19:43.879Z,43.6
2023-11-14T06:20:58.118Z,49.9
2023-11-14T06:22:12.357Z,45.1
2023-11-14T06:23:26.596Z,44.9
2023-11-14T06:24:40.834Z,43
2023-11-14T06:25:55.073Z,47.5
2023-11-14T06:27:09.312Z,44.3
2023-11-14T06:28:23.550Z,47.5
2023-11-14T06:29:37.789Z,45.4
2023-11-14T06:30:52.028Z,44.9
2023-11-14T06:32:06.267Z,46.7
2023-11-14T06:33:20.506Z,46.7
2023-11-14T06:34:34.744Z,43.5
2023-11-14T06:35:47.999Z,44.1
2023-11-14T06:37:02.238Z,46.7
2023-11-14T06:38:16.476Z,46.2
2023-11-14T06:39:30.715Z,46.2
2023-11-14T06:40:44.955Z,46.5
2023-11-14T06:41:59.194Z,47.2
2023-11-14T06:43:12.454Z,47.5
2023-11-14T06:44:26.693Z,49.7
2023-11-14T06:45:40.931Z,47.5
2023-11-14T06:46:55.170Z,45.7
2023-11-14T06:48:09.409Z,45.2
2023-11-14T06:49:23.647Z,49.1
2023-11-14T06:50:37.886Z,49.4
2023-11-14T06:51:52.125Z,45.2
2023-11-14T06:53:06.363Z,46.7
2023-11-14T06:54:20.602Z,46.8
2023-11-14T06:55:34.841Z,46.5
2023-11-14T06:56:49.080Z,45.6
2023-11-14T06:58:03.319Z,48.1
2023-11-14T06:59:16.574Z,46
2023-11-14T07:00:30.812Z,46.4
2023-11-14T07:01:45.051Z,42.8
2023-11-14T07:02:59.290Z,41.8
2023-11-14T07:04:13.528Z,43.1
2023-11-14T07:05:27.767Z,42.8
2023-11-14T07:06:42.006Z,48.3
2023-11-14T07:07:56.245Z,47.5
2023-11-14T07:09:10.484Z,45.9
2023-11-14T07:10:24.722Z,43.8
2023-11-14T07:11:38.961Z,46.7
2023-11-14T07:12:53.200Z,45.1
2023-11-14T07:14:07.438Z,45.2
2023-11-14T07:15:20.693Z,45.9
2023-11-14T07:16:34.932Z,43.5
2023-11-14T07:17:49.171Z,45.9
2023-11-14T07:19:03.410Z,45.4
2023-11-14T07:20:17.649Z,45.2
2023-11-14T07:21:31.887Z,46.4
2023-11-14T07:22:46.126Z,45.4
2023-11-14T07:24:00.365Z,45.1
2023-11-14T07:25:14.603Z,44.7
2023-11-14T07:26:28.842Z,44.4
2023-11-14T07:27:43.081Z,43.1
2023-11-14T07:28:57.320Z,44.6
2023-11-14T07:30:11.559Z,44.4
2023-11-14T07:31:24.813Z,44.9
2023-11-14T07:32:39.052Z,47
2023-11-14T07:33:53.291Z,43
2023-11-14T07:35:07.530Z,46
2023-11-14T07:36:21.768Z,42.7
2023-11-14T07:37:36.007Z,51.5
2023-11-14T07:38:50.246Z,44.9
2023-11-14T07:40:04.485Z,42.7
2023-11-14T07:41:18.723Z,48.6
2023-11-14T07:42:32.962Z,46.5
2023-11-14T07:43:47.201Z,43.5
2023-11-14T07:45:01.439Z,48.5
2023-11-14T07:46:15.678Z,44.4
2023-11-14T07:47:28.933Z,43.1
2023-11-14T07:48:43.172Z,46.2
2023-11-14T07:49:57.411Z,46
2023-11-14T07:51:11.649Z,47.8
2023-11-14T07:52:25.888Z,45.7
2023-11-14T07:53:40.127Z,43.6
2023-11-14T07:54:54.366Z,45.1
2023-11-14T07:56:08.604Z,47.2
2023-11-14T07:57:22.843Z,44.4
2023-11-14T07:58:37.082Z,44.9
2023-11-14T07:59:51.321Z,45.9
2023-11-14T08:01:05.559Z,46.5
2023-11-14T08:02:19.798Z,44.7
2023-11-14T08:03:33.053Z,46.8
2023-11-14T08:04:47.292Z,45.4
2023-11-14T08:06:01.530Z,42.7
2023-11-14T08:07:15.769Z,45.1
2023-11-14T08:08:30.008Z,44.4
2023-11-14T08:09:44.247Z,51.4
2023-11-14T08:10:58.485Z,42
2023-11-14T08:12:12.724Z,44.9
2023-11-14T08:13:26.963Z,44.1
2023-11-14T08:14:41.201Z,44.6
2023-11-14T08:15:55.440Z,47.8
2023-11-14T08:17:09.679Z,46.5
2023-11-14T08:18:23.918Z,45.1
2023-11-14T08:19:37.172Z,43.8
2023-11-14T08:20:51.411Z,45.7
2023-11-14T08:22:05.650Z,42.8
2023-11-14T08:23:19.889Z,46.5
2023-11-14T08:24:34.127Z,47
2023-11-14T08:25:48.366Z,44.3
2023-11-14T08:27:02.605Z,43.1
2023-11-14T08:28:16.843Z,43.1
2023-11-14T08:29:31.082Z,44.1
2023-11-14T08:30:45.321Z,42.5
2023-11-14T08:31:59.560Z,43.3
2023-11-14T08:33:13.798Z,48.6
2023-11-14T08:34:28.037Z,46.2
2023-11-14T08:35:41.292Z,45.1
2023-11-14T08:36:55.531Z,46.8
2023-11-14T08:38:09.769Z,44.1
2023-11-14T08:39:24.008Z,44.7
2023-11-14T08:40:38.246Z,49.1
2023-11-14T08:41:52.485Z,48.3
2023-11-14T08:43:06.724Z,47
2023-11-14T08:44:20.963Z,46.4
2023-11-14T08:45:35.201Z,49.6
2023-11-14T08:46:49.440Z,45.2
2023-11-14T08:48:03.679Z,45.6
2023-11-14T08:49:17.917Z,49.6
2023-11-14T08:50:32.156Z,50.2
2023-11-14T08:51:45.411Z,51.5
2023-11-14T08:52:59.650Z,44.7
2023-11-14T08:54:13.888Z,46
2023-11-14T08:55:28.127Z,46.8
2023-11-14T08:56:42.366Z,50.9
2023-11-14T08:57:56.604Z,44.4
2023-11-14T08:59:10.843Z,47.5
2023-11-14T09:00:25.082Z,47.3
2023-11-14T09:01:39.320Z,52.3
2023-11-14T09:02:53.559Z,51.7
2023-11-14T09:04:07.798Z,50.1
2023-11-14T09:05:22.037Z,47.8
2023-11-14T09:06:36.275Z,48.5
2023-11-14T09:07:49.530Z,48
2023-11-14T09:09:03.769Z,48.9
2023-11-14T09:10:18.008Z,50.4
2023-11-14T09:11:32.246Z,49.7
2023-11-14T09:12:46.485Z,47.3
2023-11-14T09:14:00.724Z,50.1
2023-11-14T09:15:14.962Z,51.2
2023-11-14T09:16:29.201Z,50.1
2023-11-14T09:17:43.440Z,47.6
2023-11-14T09:18:57.678Z,54.7
2023-11-14T09:20:11.918Z,48.5
2023-11-14T09:21:26.157Z,46.5
2023-11-14T09:22:40.395Z,52.6
2023-11-14T09:23:53.650Z,45.7
2023-11-14T09:25:07.889Z,47
2023-11-14T09:26:22.128Z,44.9
2023-11-14T09:27:36.366Z,55.7
2023-11-14T09:28:50.605Z,47.5
2023-11-14T09:30:04.844Z,47
2023-11-14T09:31:19.082Z,45.4
2023-11-14T09:32:33.321Z,49.9
2023-11-14T09:33:47.560Z,46.5
2023-11-14T09:35:01.799Z,46.4
2023-11-14T09:36:16.037Z,46.2
2023-11-14T09:37:30.276Z,49.4
2023-11-14T09:38:44.515Z,47.6
2023-11-14T09:39:57.769Z,47.8
2023-11-14T09:41:12.008Z,51
2023-11-14T09:42:26.247Z,47.5
2023-11-14T09:43:40.485Z,48.9
2023-11-14T09:44:54.724Z,50.2
2023-11-14T09:46:08.963Z,52.2
2023-11-14T09:47:23.202Z,48.9
2023-11-14T09:48:37.440Z,46.8
2023-11-14T09:49:51.679Z,53.1
2023-11-14T09:51:05.917Z,46.2
2023-11-14T09:52:20.156Z,50.9
2023-11-14T09:53:34.395Z,47.2
2023-11-14T09:54:48.633Z,55.4
2023-11-14T09:56:01.888Z,49.9
2023-11-14T09:57:16.127Z,48.9
2023-11-14T09:58:30.366Z,50.5
2023-11-14T09:59:44.604Z,46.2
2023-11-14T10:00:58.846Z,48.9
2023-11-14T10:02:13.081Z,49.9
2023-11-14T10:03:27.320Z,54.7
2023-11-14T10:04:41.559Z,51.4
2023-11-14T10:05:55.797Z,47.8
2023-11-14T10:07:10.036Z,49.4
2023-11-14T10:08:24.275Z,47.5
2023-11-14T10:09:38.514Z,52.5
2023-11-14T10:10:52.752Z,54.6
2023-11-14T10:12:06.007Z,47.8
2023-11-14T10:13:20.246Z,45.9
2023-11-14T10:14:34.484Z,46.7
2023-11-14T10:15:48.723Z,49.4
2023-11-14T10:17:02.962Z,48.8
2023-11-14T10:18:17.201Z,53
2023-11-14T10:19:31.439Z,49.1
2023-11-14T10:20:45.678Z,51.7
2023-11-14T10:21:59.917Z,45.1
2023-11-14T10:23:14.143Z,50.9
2023-11-14T10:24:28.394Z,46.4
2023-11-14T10:25:42.633Z,55.2
2023-11-14T10:26:56.871Z,46.4
2023-11-14T10:28:10.126Z,48
2023-11-14T10:29:24.365Z,50.5
2023-11-14T10:30:38.604Z,44.7
2023-11-14T10:31:52.842Z,51
2023-11-14T10:33:07.081Z,48
2023-11-14T10:34:21.320Z,51.4
2023-11-14T10:35:35.558Z,46.4
2023-11-14T10:36:49.797Z,48.5
2023-11-14T10:38:04.036Z,47.8
2023-11-14T10:39:18.274Z,45.9
2023-11-14T10:40:32.513Z,53.6
2023-11-14T10:41:46.752Z,47
2023-11-14T10:43:00.990Z,46.7
2023-11-14T10:44:14.245Z,46.8
2023-11-14T10:45:28.484Z,47.2
2023-11-14T10:46:42.723Z,48.5
2023-11-14T10:47:56.961Z,46.7
2023-11-14T10:49:11.200Z,51.8
2023-11-14T10:50:25.439Z,47
2023-11-14T10:51:38.699Z,49.4
2023-11-14T10:52:52.937Z,52.3
2023-11-14T10:54:07.176Z,52.3
2023-11-14T10:55:21.415Z,51.4
2023-11-14T10:56:35.653Z,48.8
2023-11-14T10:57:49.892Z,53.6
2023-11-14T10:59:04.131Z,56
2023-11-14T11:00:18.369Z,53
2023-11-14T11:01:32.608Z,47.6
2023-11-14T11:02:46.847Z,48.9
2023-11-14T11:04:01.086Z,50.7
2023-11-14T11:05:15.324Z,55.2
2023-11-14T11:06:29.563Z,48.6
2023-11-14T11:07:42.818Z,46
2023-11-14T11:08:57.056Z,47.6
2023-11-14T11:10:11.295Z,49.6
2023-11-14T11:11:25.534Z,49.3
2023-11-14T11:12:39.773Z,47.2
2023-11-14T11:13:54.011Z,46.2
2023-11-14T11:15:08.237Z,46.8
2023-11-14T11:16:22.489Z,47.2
2023-11-14T11:17:36.727Z,45.7
2023-11-14T11:18:50.966Z,51.7
2023-11-14T11:20:05.205Z,45.7
2023-11-14T11:21:19.443Z,54.3
2023-11-14T11:22:33.682Z,49.3
2023-11-14T11:23:46.937Z,47.2
2023-11-14T11:25:01.176Z,45.7
2023-11-14T11:26:15.414Z,58.4
2023-11-14T11:27:29.653Z,44.7
2023-11-14T11:28:43.891Z,48
2023-11-14T11:29:58.130Z,47.5
2023-11-14T11:31:12.369Z,48.3
2023-11-14T11:32:26.607Z,49.6
2023-11-14T11:33:40.846Z,45.9
2023-11-14T11:34:55.085Z,58.8
2023-11-14T11:36:09.324Z,53.1
2023-11-14T11:37:23.562Z,48
2023-11-14T11:38:37.801Z,47.2
2023-11-14T11:39:51.056Z,47.8
2023-11-14T11:41:05.294Z,51.4
2023-11-14T11:42:19.533Z,53.4
2023-11-14T11:43:33.772Z,62.5
2023-11-14T11:44:48.011Z,52.5
2023-11-14T11:46:02.249Z,53.8
2023-11-14T11:47:16.488Z,49.9
2023-11-14T11:48:30.726Z,46.7
2023-11-14T11:49:44.965Z,46.8
2023-11-14T11:50:59.204Z,46.8
2023-11-14T11:52:13.442Z,50.4
2023-11-14T11:53:27.681Z,50.1
2023-11-14T11:54:41.920Z,45.2
2023-11-14T11:55:55.175Z,49.9
2023-11-14T11:57:09.413Z,46.2
2023-11-14T11:58:23.652Z,45.7
2023-11-14T11:59:37.891Z,49.3
2023-11-14T12:00:52.129Z,47.5
2023-11-14T12:02:06.348Z,50.5
2023-11-14T12:03:20.607Z,51.4
2023-11-14T12:04:34.845Z,48.6
2023-11-14T12:05:49.084Z,46.4
2023-11-14T12:07:03.323Z,46.7
2023-11-14T12:08:17.562Z,46.5
2023-11-14T12:09:31.800Z,44.9
2023-11-14T12:10:46.039Z,46.7
2023-11-14T12:11:59.294Z,52.3
2023-11-14T12:13:13.532Z,50.4
2023-11-14T12:14:27.771Z,51
2023-11-14T12:15:42.010Z,45.7
2023-11-14T12:16:56.248Z,49.3
2023-11-14T12:18:10.487Z,47.2
2023-11-14T12:19:24.726Z,48.6
2023-11-14T12:20:38.964Z,49.6
2023-11-14T12:21:53.203Z,49.3
2023-11-14T12:23:07.441Z,50.5
2023-11-14T12:24:21.680Z,53.4
2023-11-14T12:25:35.919Z,50.7
2023-11-14T12:26:50.158Z,50.1
2023-11-14T12:28:03.413Z,47.6
2023-11-14T12:29:17.651Z,48.8
2023-11-14T12:30:31.890Z,47.3
2023-11-14T12:31:46.129Z,47.6
2023-11-14T12:33:00.368Z,47.3
2023-11-14T12:34:14.607Z,47.3
2023-11-14T12:35:28.845Z,54.1
2023-11-14T12:36:43.084Z,48
2023-11-14T12:37:57.323Z,46
2023-11-14T12:39:11.562Z,43.9
2023-11-14T12:40:25.800Z,46.5
2023-11-14T12:41:40.039Z,55.4
2023-11-14T12:42:54.277Z,43.6
2023-11-14T12:44:07.532Z,45.1
2023-11-14T12:45:21.771Z,45.4
2023-11-14T12:46:36.009Z,42.5
2023-11-14T12:47:50.248Z,43.1
2023-11-14T12:49:04.487Z,47.3
2023-11-14T12:50:18.725Z,47.5
2023-11-14T12:51:32.964Z,45.6
2023-11-14T12:52:47.203Z,43.8
2023-11-14T12:54:01.441Z,44.1
2023-11-14T12:55:15.680Z,47.5
2023-11-14T12:56:29.919Z,45.2
2023-11-14T12:57:44.157Z,45.4
2023-11-14T12:58:58.396Z,48.8
2023-11-14T13:00:11.651Z,44.9
2023-11-14T13:01:25.889Z,43.9
2023-11-14T13:02:40.128Z,42.7
2023-11-14T13:03:54.367Z,41.5
2023-11-14T13:05:08.605Z,44.6
2023-11-14T13:06:22.844Z,43.3
2023-11-14T13:07:37.083Z,44.7
2023-11-14T13:08:51.321Z,42.2
2023-11-14T13:10:05.560Z,44.9
2023-11-14T13:11:19.799Z,43.6
2023-11-14T13:12:34.037Z,45.2
2023-11-14T13:13:48.276Z,43.9
2023-11-14T13:15:02.515Z,44.7
2023-11-14T13:16:15.769Z,46.4
2023-11-14T13:17:30.008Z,45.4
2023-11-14T13:18:44.247Z,44.7
2023-11-14T13:19:58.485Z,43.6
2023-11-14T13:21:12.724Z,40.9
2023-11-14T13:22:26.963Z,40.6
2023-11-14T13:23:41.201Z,42.5
2023-11-14T13:24:55.440Z,43.3
2023-11-14T13:26:09.679Z,41
2023-11-14T13:27:23.917Z,43.9
2023-11-14T13:28:38.156Z,45.4
2023-11-14T13:29:52.394Z,42.8
2023-11-14T13:31:06.633Z,42.2
2023-11-14T13:32:19.888Z,43.9
2023-11-14T13:33:34.127Z,46.4
2023-11-14T13:34:48.365Z,43.8
2023-11-14T13:36:02.604Z,43.6
2023-11-14T13:37:16.843Z,45.6
2023-11-14T13:38:31.081Z,41.8
2023-11-14T13:39:45.320Z,51.4
2023-11-14T13:40:59.558Z,50.1
2023-11-14T13:42:13.797Z,53.9
2023-11-14T13:43:28.036Z,47.2
2023-11-14T13:44:42.275Z,47.5
2023-11-14T13:45:56.514Z,46.7
2023-11-14T13:47:10.753Z,49.4
2023-11-14T13:48:24.008Z,47.2
2023-11-14T13:49:38.246Z,48.8
2023-11-14T13:50:52.485Z,46.8
2023-11-14T13:52:06.723Z,47.3
2023-11-14T13:53:20.962Z,48.3
2023-11-14T13:54:35.201Z,47
2023-11-14T13:55:49.440Z,49.3
2023-11-14T13:57:03.678Z,47.6
2023-11-14T13:58:17.917Z,45.6
2023-11-14T13:59:32.157Z,46.2
2023-11-14T14:00:46.395Z,43.8
2023-11-14T14:02:00.634Z,44.7
2023-11-14T14:03:14.873Z,43
2023-11-14T14:04:28.127Z,44.9
2023-11-14T14:05:42.366Z,42.3
2023-11-14T14:06:56.605Z,43.5
2023-11-14T14:08:10.843Z,43.6
2023-11-14T14:09:25.082Z,42.3
2023-11-14T14:10:39.320Z,47.5
2023-11-14T14:11:53.559Z,46.2
2023-11-14T14:13:07.797Z,44.1
2023-11-14T14:14:22.036Z,46.7
2023-11-14T14:15:36.275Z,43.9
2023-11-14T14:16:50.514Z,43.8
2023-11-14T14:18:04.752Z,43.9
2023-11-14T14:19:18.991Z,46.8
2023-11-14T14:20:32.245Z,48.6
2023-11-14T14:21:46.484Z,45.1
2023-11-14T14:23:00.723Z,49.6
2023-11-14T14:24:14.961Z,45.4
2023-11-14T14:25:29.200Z,45.4
2023-11-14T14:26:43.439Z,44.7
2023-11-14T14:27:57.677Z,44.6
2023-11-14T14:29:11.916Z,50.9
2023-11-14T14:30:26.154Z,50.1
2023-11-14T14:31:40.393Z,47.8
2023-11-14T14:32:54.632Z,46.2
2023-11-14T14:34:08.870Z,45.1
2023-11-14T14:35:23.109Z,50.1
2023-11-14T14:36:36.364Z,46.4
2023-11-14T14:37:50.602Z,48.6
2023-11-14T14:39:04.841Z,47.2
2023-11-14T14:40:19.080Z,44.9
2023-11-14T14:41:33.318Z,44.7
2023-11-14T14:42:47.557Z,47.2
2023-11-14T14:44:01.795Z,53.8
2023-11-14T14:45:16.034Z,45.9
2023-11-14T14:46:30.273Z,44.6
2023-11-14T14:47:44.511Z,42
2023-11-14T14:48:58.750Z,44.4
2023-11-14T14:50:12.989Z,43.8
2023-11-14T14:51:27.227Z,51
2023-11-14T14:52:40.482Z,48.5
2023-11-14T14:53:54.721Z,46.7
2023-11-14T14:55:08.960Z,45.9
2023-11-14T14:56:23.199Z,46.7
2023-11-14T14:57:37.438Z,48.5
2023-11-14T14:58:51.676Z,45.1
2023-11-14T15:00:04.936Z,42.8
2023-11-14T15:01:19.175Z,45.4
2023-11-14T15:02:33.413Z,45.9
2023-11-14T15:03:47.653Z,45.7
2023-11-14T15:05:01.891Z,43.3
2023-11-14T15:06:16.130Z,45.2
2023-11-14T15:07:30.369Z,46.7
2023-11-14T15:08:44.607Z,47.2
2023-11-14T15:09:58.846Z,47.6
2023-11-14T15:11:13.085Z,47.2
2023-11-14T15:12:27.323Z,45.9
2023-11-14T15:13:41.562Z,42.8
2023-11-14T15:14:55.800Z,45.7
2023-11-14T15:16:09.055Z,43.8
2023-11-14T15:17:23.294Z,46.2
2023-11-14T15:18:37.532Z,45.2
2023-11-14T15:19:51.771Z,47.6
2023-11-14T15:21:06.010Z,46.2
2023-11-14T15:22:20.250Z,42.7
2023-11-14T15:23:34.488Z,46.4
2023-11-14T15:24:48.727Z,43.9
2023-11-14T15:26:02.965Z,46
2023-11-14T15:27:17.204Z,48.6
2023-11-14T15:28:31.442Z,47.5
2023-11-14T15:29:45.681Z,48
2023-11-14T15:30:59.920Z,45.7
2023-11-14T15:32:13.175Z,44.9
2023-11-14T15:33:27.413Z,49.1
2023-11-14T15:34:41.652Z,51.5
2023-11-14T15:35:55.891Z,43.6
2023-11-14T15:37:10.129Z,46.4
2023-11-14T15:38:24.368Z,45.1
2023-11-14T15:39:38.606Z,45.7
2023-11-14T15:40:52.845Z,45.2
2023-11-14T15:42:07.084Z,45.2
2023-11-14T15:43:21.323Z,43.6
2023-11-14T15:44:35.562Z,41.7
2023-11-14T15:45:49.801Z,43.6
2023-11-14T15:47:04.039Z,42.5
2023-11-14T15:48:17.294Z,45.6
2023-11-14T15:49:31.533Z,43
2023-11-14T15:50:45.771Z,40.7
2023-11-14T15:52:00.010Z,40.2
2023-11-14T15:53:14.303Z,43.8
2023-11-14T15:54:28.596Z,46.7
2023-11-14T15:55:42.889Z,44.4
2023-11-14T15:56:57.181Z,44.7
2023-11-14T15:58:11.474Z,45.4
2023-11-14T15:59:25.767Z,42.8
2023-11-14T16:00:40.060Z,43.3
2023-11-14T16:01:54.353Z,45.1
2023-11-14T16:03:08.645Z,45.2
2023-11-14T16:04:21.954Z,46.4
2023-11-14T16:05:36.247Z,43.6
2023-11-14T16:06:50.539Z,43.8
2023-11-14T16:08:04.832Z,41
2023-11-14T16:09:19.124Z,40.7
2023-11-14T16:10:33.417Z,40.9
2023-11-14T16:11:47.709Z,43.3
2023-11-14T16:13:02.002Z,43.3
2023-11-14T16:14:16.295Z,41.5
2023-11-14T16:15:30.587Z,43
2023-11-14T16:16:44.880Z,42.5
2023-11-14T16:17:59.172Z,43.1
2023-11-14T16:19:13.465Z,45.6
2023-11-14T16:20:26.774Z,43
2023-11-14T16:21:41.066Z,44.4
2023-11-14T16:22:55.359Z,42
2023-11-14T16:24:09.652Z,41.4
2023-11-14T16:25:23.944Z,42.2
2023-11-14T16:26:38.237Z,41.5
2023-11-14T16:27:52.529Z,41.2
2023-11-14T16:29:06.822Z,41.7
2023-11-14T16:30:21.115Z,43.8
2023-11-14T16:31:35.407Z,42.8
2023-11-14T16:32:49.700Z,43.9
2023-11-14T16:34:03.993Z,39.6